createdAt,value
2018-05-25T00:02:16.567Z,45.60
2018-05-25T00:04:44.113Z,45.80
2018-05-25T00:07:12.391Z,46.40
2018-05-25T00:09:39.848Z,46.30
2018-05-25T00:12:07.308Z,46.40
2018-05-25T00:14:34.800Z,46.50
2018-05-25T00:17:02.261Z,46.60
2018-05-25T00:19:29.724Z,46.60
2018-05-25T00:21:57.176Z,46.60
2018-05-25T00:24:24.638Z,46.50
2018-05-25T00:26:52.091Z,46.70
2018-05-25T00:29:19.559Z,46.50
2018-05-25T00:31:47.017Z,46.40
2018-05-25T00:34:15.288Z,46.70
2018-05-25T00:36:42.748Z,46.60
2018-05-25T00:39:10.893Z,46.90
2018-05-25T00:41:39.708Z,47.20
2018-05-25T00:44:07.154Z,46.80
2018-05-25T00:46:34.599Z,47.10
2018-05-25T00:49:02.077Z,47.30
2018-05-25T00:51:29.535Z,47.30
2018-05-25T00:53:56.981Z,47.20
2018-05-25T00:56:24.453Z,47.30
2018-05-25T00:58:51.908Z,47.30
2018-05-25T01:01:19.362Z,47.30
2018-05-25T01:03:46.820Z,47.30
2018-05-25T01:06:15.062Z,47.60
2018-05-25T01:08:43.283Z,47.80
2018-05-25T01:11:11.784Z,47.80
2018-05-25T01:13:39.963Z,47.90
2018-05-25T01:16:08.171Z,47.80
2018-05-25T01:18:35.647Z,47.70
2018-05-25T01:21:03.873Z,47.70
2018-05-25T01:23:31.346Z,47.70
2018-05-25T01:25:58.793Z,47.60
2018-05-25T01:28:26.263Z,47.60
2018-05-25T01:30:53.728Z,47.60
2018-05-25T01:33:21.195Z,47.60
2018-05-25T01:35:48.667Z,47.70
2018-05-25T01:38:16.121Z,47.60
2018-05-25T01:40:44.368Z,48.20
2018-05-25T01:43:11.848Z,48.10
2018-05-25T01:45:39.839Z,48.00
2018-05-25T01:48:07.302Z,48.20
2018-05-25T01:50:34.749Z,48.20
2018-05-25T01:53:02.963Z,48.20
2018-05-25T01:55:31.218Z,48.20
2018-05-25T01:57:58.659Z,48.20
2018-05-25T02:00:26.127Z,48.30
2018-05-25T02:02:54.351Z,48.20
2018-05-25T02:05:21.859Z,48.20
2018-05-25T02:07:49.338Z,48.40
2018-05-25T02:10:16.805Z,48.70
2018-05-25T02:12:44.326Z,48.90
2018-05-25T02:15:11.775Z,48.80
2018-05-25T02:17:39.775Z,48.80
2018-05-25T02:20:07.235Z,49.70
2018-05-25T02:22:34.685Z,49.20
2018-05-25T02:25:02.146Z,49.30
2018-05-25T02:27:29.633Z,49.60
2018-05-25T02:29:57.089Z,49.70
2018-05-25T02:32:24.541Z,49.80
2018-05-25T02:34:52.068Z,49.70
2018-05-25T02:37:19.554Z,49.80
2018-05-25T02:39:47.785Z,49.80
2018-05-25T02:42:15.254Z,49.80
2018-05-25T02:44:42.735Z,50.00
2018-05-25T02:47:11.054Z,49.60
2018-05-25T02:49:38.516Z,49.70
2018-05-25T02:52:05.975Z,49.50
2018-05-25T02:54:33.432Z,49.60
2018-05-25T02:57:00.928Z,49.90
2018-05-25T02:59:28.386Z,49.90
2018-05-25T03:01:55.850Z,49.90
2018-05-25T03:04:24.099Z,49.70
2018-05-25T03:06:51.557Z,49.70
2018-05-25T03:09:19.039Z,49.70
2018-05-25T03:11:46.502Z,49.80
2018-05-25T03:14:14.749Z,49.90
2018-05-25T03:16:42.225Z,49.90
2018-05-25T03:19:10.132Z,50.00
2018-05-25T03:21:37.599Z,50.00
2018-05-25T03:24:05.048Z,50.00
2018-05-25T03:26:32.507Z,50.20
2018-05-25T03:28:59.978Z,50.20
2018-05-25T03:31:27.445Z,49.90
2018-05-25T03:33:55.669Z,50.00
2018-05-25T03:36:23.142Z,50.00
2018-05-25T03:38:50.614Z,50.00
2018-05-25T03:41:18.081Z,50.10
2018-05-25T03:43:45.553Z,50.20
2018-05-25T03:46:13.042Z,50.00
2018-05-25T03:48:41.105Z,50.30
2018-05-25T03:51:09.983Z,50.10
2018-05-25T03:53:37.446Z,50.10
2018-05-25T03:56:04.902Z,50.10
2018-05-25T03:58:44.427Z,50.20
2018-05-25T04:01:23.642Z,49.90
2018-05-25T04:03:51.139Z,49.90
2018-05-25T04:06:18.598Z,50.00
2018-05-25T04:08:46.072Z,49.80
2018-05-25T04:11:13.554Z,50.20
2018-05-25T04:13:41.024Z,50.20
2018-05-25T04:16:09.799Z,49.90
2018-05-25T04:18:37.272Z,49.80
2018-05-25T04:21:04.723Z,49.80
2018-05-25T04:23:32.204Z,49.40
2018-05-25T04:25:59.675Z,49.50
2018-05-25T04:28:27.132Z,49.30
2018-05-25T04:30:54.593Z,49.50
2018-05-25T04:33:22.058Z,50.60
2018-05-25T04:35:49.532Z,50.90
2018-05-25T04:38:17.015Z,50.60
2018-05-25T04:40:44.486Z,51.50
2018-05-25T04:43:11.970Z,51.00
2018-05-25T04:45:39.964Z,51.00
2018-05-25T04:48:07.443Z,51.30
2018-05-25T04:50:34.900Z,51.80
2018-05-25T04:53:02.347Z,52.00
2018-05-25T04:55:29.840Z,52.90
2018-05-25T04:57:58.204Z,51.40
2018-05-25T05:00:25.681Z,52.90
2018-05-25T05:02:54.042Z,52.50
2018-05-25T05:05:22.273Z,51.90
2018-05-25T05:07:49.813Z,51.90
2018-05-25T05:10:17.269Z,51.70
2018-05-25T05:12:44.740Z,51.10
2018-05-25T05:15:12.226Z,51.10
2018-05-25T05:17:40.540Z,52.70
2018-05-25T05:20:08.002Z,51.40
2018-05-25T05:22:35.472Z,52.30
2018-05-25T05:25:02.939Z,51.60
2018-05-25T05:30:05.220Z,51.30
2018-05-25T05:32:32.671Z,51.20
2018-05-25T05:35:00.129Z,51.80
2018-05-25T05:37:27.596Z,51.00
2018-05-25T05:39:55.056Z,51.60
2018-05-25T05:42:22.533Z,51.00
2018-05-25T05:44:50.007Z,51.70
2018-05-25T05:47:17.481Z,51.40
2018-05-25T05:49:44.949Z,51.30
2018-05-25T05:52:12.426Z,50.70
2018-05-25T05:54:40.404Z,50.80
2018-05-25T05:57:08.636Z,50.80
2018-05-25T05:59:36.125Z,50.80
2018-05-25T06:02:03.600Z,51.10
2018-05-25T06:04:31.065Z,50.70
2018-05-25T06:06:58.529Z,50.70
2018-05-25T06:09:26.773Z,50.40
2018-05-25T06:11:54.240Z,50.40
2018-05-25T06:14:21.772Z,50.30
2018-05-25T06:16:49.289Z,49.80
2018-05-25T06:19:17.529Z,49.70
2018-05-25T06:21:45.009Z,49.70
2018-05-25T06:24:12.493Z,49.80
2018-05-25T06:26:39.975Z,49.60
2018-05-25T06:29:07.433Z,49.20
2018-05-25T06:31:34.988Z,49.10
2018-05-25T06:34:03.893Z,48.50
2018-05-25T06:36:31.390Z,48.40
2018-05-25T06:38:59.614Z,49.70
2018-05-25T06:41:27.109Z,49.00
2018-05-25T06:43:54.584Z,48.40
2018-05-25T06:46:22.044Z,48.50
2018-05-25T06:48:50.300Z,49.20
2018-05-25T06:51:17.777Z,49.20
2018-05-25T06:53:45.281Z,47.50
2018-05-25T06:56:12.769Z,47.90
2018-05-25T06:58:40.553Z,47.90
2018-05-25T07:01:08.057Z,47.30
2018-05-25T07:03:36.326Z,47.10
2018-05-25T07:06:03.819Z,47.00
2018-05-25T07:08:31.317Z,46.80
2018-05-25T07:10:58.797Z,47.40
2018-05-25T07:13:26.312Z,46.40
2018-05-25T07:15:53.821Z,46.50
2018-05-25T07:18:21.309Z,46.10
2018-05-25T07:20:48.807Z,47.20
2018-05-25T07:23:16.295Z,45.80
2018-05-25T07:25:43.803Z,46.00
2018-05-25T07:28:12.058Z,45.30
2018-05-25T07:30:39.590Z,45.20
2018-05-25T07:33:07.090Z,44.60
2018-05-25T07:35:35.361Z,44.70
2018-05-25T07:38:02.865Z,44.60
2018-05-25T07:40:31.111Z,43.70
2018-05-25T07:42:58.625Z,43.70
2018-05-25T07:45:26.133Z,43.80
2018-05-25T07:47:54.395Z,43.20
2018-05-25T07:50:21.867Z,43.20
2018-05-25T07:52:49.345Z,42.80
2018-05-25T07:55:16.824Z,43.00
2018-05-25T07:57:44.319Z,42.10
2018-05-25T08:00:11.802Z,42.80
2018-05-25T08:02:39.288Z,42.90
2018-05-25T08:05:06.776Z,42.40
2018-05-25T08:07:34.275Z,42.30
2018-05-25T08:10:01.789Z,41.50
2018-05-25T08:12:30.039Z,42.10
2018-05-25T08:14:57.513Z,42.00
2018-05-25T08:17:25.031Z,41.50
2018-05-25T08:19:52.495Z,41.40
2018-05-25T08:22:19.990Z,41.70
2018-05-25T08:24:47.464Z,40.70
2018-05-25T08:27:14.944Z,40.00
2018-05-25T08:29:42.417Z,40.00
2018-05-25T08:32:10.316Z,39.30
2018-05-25T08:34:39.605Z,39.50
2018-05-25T08:37:07.083Z,39.50
2018-05-25T08:39:34.603Z,39.70
2018-05-25T08:42:02.067Z,38.60
2018-05-25T08:44:29.556Z,39.10
2018-05-25T08:46:57.040Z,38.60
2018-05-25T08:49:24.533Z,38.90
2018-05-25T08:51:52.001Z,38.20
2018-05-25T08:54:19.485Z,38.00
2018-05-25T08:56:46.965Z,38.00
2018-05-25T08:59:14.474Z,38.40
2018-05-25T09:01:41.957Z,37.70
2018-05-25T09:04:09.952Z,37.70
2018-05-25T09:06:37.438Z,36.40
2018-05-25T09:09:05.751Z,36.50
2018-05-25T09:11:33.234Z,36.70
2018-05-25T09:14:00.728Z,36.20
2018-05-25T09:16:28.990Z,36.60
2018-05-25T09:18:57.273Z,36.20
2018-05-25T09:21:24.798Z,36.20
2018-05-25T09:23:52.328Z,35.70
2018-05-25T09:26:19.855Z,35.40
2018-05-25T09:28:47.382Z,35.70
2018-05-25T09:31:14.889Z,34.60
2018-05-25T09:33:42.369Z,34.60
2018-05-25T09:36:10.424Z,34.40
2018-05-25T09:38:38.702Z,34.00
2018-05-25T09:41:06.232Z,34.00
2018-05-25T09:43:33.727Z,33.00
2018-05-25T09:46:01.257Z,33.20
2018-05-25T09:48:28.753Z,33.80
2018-05-25T09:50:56.262Z,33.90
2018-05-25T09:53:23.781Z,33.30
2018-05-25T09:55:51.286Z,33.20
2018-05-25T09:58:19.759Z,32.80
2018-05-25T10:00:47.273Z,32.20
2018-05-25T10:03:14.788Z,32.20
2018-05-25T10:05:42.324Z,31.70
2018-05-25T10:08:10.062Z,31.30
2018-05-25T10:10:37.590Z,32.00
2018-05-25T10:13:05.110Z,31.40
2018-05-25T10:15:32.624Z,32.00
2018-05-25T10:18:00.169Z,32.30
2018-05-25T10:20:27.675Z,31.90
2018-05-25T10:22:55.955Z,31.40
2018-05-25T10:25:23.512Z,31.40
2018-05-25T10:27:51.797Z,32.10
2018-05-25T10:30:19.302Z,32.00
2018-05-25T10:32:46.830Z,31.90
2018-05-25T10:37:49.059Z,31.30
2018-05-25T10:40:16.591Z,31.20
2018-05-25T10:42:44.133Z,31.90
2018-05-25T10:45:12.433Z,31.60
2018-05-25T10:47:40.578Z,31.50
2018-05-25T10:50:08.110Z,31.70
2018-05-25T10:52:35.657Z,31.10
2018-05-25T10:55:03.177Z,30.80
2018-05-25T10:57:31.480Z,30.90
2018-05-25T10:59:59.777Z,31.00
2018-05-25T11:02:27.286Z,31.00
2018-05-25T11:04:54.836Z,31.10
2018-05-25T11:07:22.337Z,30.90
2018-05-25T11:09:50.618Z,31.60
2018-05-25T11:12:18.147Z,31.60
2018-05-25T11:14:45.675Z,31.00
2018-05-25T11:17:13.192Z,30.60
2018-05-25T11:19:41.382Z,30.70
2018-05-25T11:22:08.938Z,31.20
2018-05-25T11:24:36.822Z,31.90
2018-05-25T11:27:04.441Z,31.40
2018-05-25T11:29:31.906Z,31.40
2018-05-25T11:31:59.433Z,31.40
2018-05-25T11:34:27.738Z,30.90
2018-05-25T11:36:55.310Z,30.90
2018-05-25T11:39:23.614Z,30.80
2018-05-25T11:41:51.902Z,31.10
2018-05-25T11:44:19.438Z,31.00
2018-05-25T11:46:46.978Z,31.70
2018-05-25T11:49:14.505Z,31.30
2018-05-25T11:51:42.050Z,30.80
2018-05-25T11:54:10.351Z,31.00
2018-05-25T11:56:38.644Z,30.40
2018-05-25T11:59:06.945Z,30.30
2018-05-25T12:01:34.462Z,30.30
2018-05-25T12:04:01.997Z,30.20
2018-05-25T12:06:29.539Z,30.30
2018-05-25T12:08:57.079Z,30.60
2018-05-25T12:11:25.375Z,30.60
2018-05-25T12:13:52.913Z,29.90
2018-05-25T12:16:20.502Z,30.00
2018-05-25T12:18:48.010Z,29.90
2018-05-25T12:21:15.542Z,30.10
2018-05-25T12:23:43.053Z,30.30
2018-05-25T12:26:11.412Z,30.00
2018-05-25T12:28:40.454Z,30.60
2018-05-25T12:31:07.996Z,30.50
2018-05-25T12:33:35.516Z,29.70
2018-05-25T12:36:03.196Z,30.40
2018-05-25T12:38:31.464Z,29.80
2018-05-25T12:40:59.013Z,29.80
2018-05-25T12:43:28.197Z,30.10
2018-05-25T12:45:56.511Z,29.70
2018-05-25T12:50:58.146Z,29.20
2018-05-25T12:53:25.685Z,29.80
2018-05-25T12:55:53.234Z,29.60
2018-05-25T12:58:20.792Z,29.90
2018-05-25T13:00:48.340Z,29.80
2018-05-25T13:03:15.857Z,29.60
2018-05-25T13:05:44.262Z,29.90
2018-05-25T13:08:11.834Z,30.20
2018-05-25T13:10:39.772Z,30.10
2018-05-25T13:13:07.331Z,29.70
2018-05-25T13:15:34.864Z,29.50
2018-05-25T13:18:02.431Z,29.90
2018-05-25T13:20:30.003Z,30.00
2018-05-25T13:22:57.550Z,30.10
2018-05-25T13:25:25.860Z,29.60
2018-05-25T13:27:53.414Z,29.50
2018-05-25T13:30:20.933Z,29.40
2018-05-25T13:32:48.475Z,29.00
2018-05-25T13:35:16.029Z,29.00
2018-05-25T13:37:43.590Z,29.20
2018-05-25T13:40:11.332Z,28.70
2018-05-25T13:42:38.944Z,29.10
2018-05-25T13:45:06.489Z,29.10
2018-05-25T13:47:34.052Z,29.20
2018-05-25T13:50:01.601Z,29.50
2018-05-25T13:52:29.180Z,29.20
2018-05-25T13:54:57.513Z,29.40
2018-05-25T13:57:25.025Z,29.40
2018-05-25T13:59:52.575Z,29.20
2018-05-25T14:02:20.114Z,29.00
2018-05-25T14:04:47.662Z,29.00
2018-05-25T14:07:15.231Z,29.20
2018-05-25T14:09:42.803Z,29.50
2018-05-25T14:12:10.362Z,29.50
2018-05-25T14:14:38.647Z,29.50
2018-05-25T14:17:06.166Z,28.90
2018-05-25T14:19:34.458Z,28.60
2018-05-25T14:22:02.772Z,28.70
2018-05-25T14:24:31.072Z,28.90
2018-05-25T14:26:59.405Z,28.90
2018-05-25T14:29:26.937Z,28.90
2018-05-25T14:31:55.274Z,28.80
2018-05-25T14:34:22.804Z,28.80
2018-05-25T14:36:50.340Z,28.90
2018-05-25T14:39:17.873Z,29.30
2018-05-25T14:41:45.385Z,29.30
2018-05-25T14:44:13.681Z,29.10
2018-05-25T14:46:42.008Z,29.80
2018-05-25T14:49:09.815Z,29.40
2018-05-25T14:51:37.372Z,29.30
2018-05-25T14:54:04.912Z,29.20
2018-05-25T14:56:32.477Z,29.10
2018-05-25T14:59:00.033Z,29.10
2018-05-25T15:01:27.526Z,28.70
2018-05-25T15:03:55.040Z,28.90
2018-05-25T15:06:22.606Z,28.90
2018-05-25T15:08:50.154Z,29.10
2018-05-25T15:11:18.463Z,29.30
2018-05-25T15:13:46.031Z,29.30
2018-05-25T15:16:14.341Z,29.00
2018-05-25T15:18:42.650Z,29.20
2018-05-25T15:21:10.833Z,29.20
2018-05-25T15:23:38.329Z,29.20
2018-05-25T15:26:06.652Z,29.50
2018-05-25T15:28:34.192Z,29.40
2018-05-25T15:31:01.870Z,29.40
2018-05-25T15:33:29.267Z,29.20
2018-05-25T15:35:56.824Z,29.30
2018-05-25T15:38:24.390Z,28.90
2018-05-25T15:40:51.974Z,29.00
2018-05-25T15:43:19.509Z,28.70
2018-05-25T15:45:47.824Z,28.80
2018-05-25T15:48:15.371Z,28.70
2018-05-25T15:50:43.679Z,29.20
2018-05-25T15:53:12.156Z,29.20
2018-05-25T15:55:40.413Z,29.70
2018-05-25T15:58:08.707Z,30.70
2018-05-25T16:00:37.006Z,31.00
2018-05-25T16:03:05.311Z,31.10
2018-05-25T16:05:32.863Z,31.10
2018-05-25T16:08:01.140Z,31.30
2018-05-25T16:10:28.684Z,31.30
2018-05-25T16:12:56.954Z,31.30
2018-05-25T16:15:24.536Z,31.30
2018-05-25T16:17:52.071Z,31.70
2018-05-25T16:20:20.491Z,32.20
2018-05-25T16:22:48.043Z,32.20
2018-05-25T16:25:16.350Z,32.90
2018-05-25T16:27:44.662Z,33.00
2018-05-25T16:30:12.991Z,33.10
2018-05-25T16:32:42.366Z,33.20
2018-05-25T16:35:10.228Z,33.20
2018-05-25T16:37:38.544Z,33.80
2018-05-25T16:40:06.075Z,33.30
2018-05-25T16:42:33.621Z,33.80
2018-05-25T16:45:01.175Z,33.80
2018-05-25T16:47:28.724Z,33.90
2018-05-25T16:49:56.253Z,34.10
2018-05-25T16:52:23.815Z,34.10
2018-05-25T16:54:51.349Z,34.10
2018-05-25T16:57:19.683Z,33.90
2018-05-25T16:59:47.205Z,34.30
2018-05-25T17:02:14.742Z,34.40
2018-05-25T17:04:42.278Z,34.60
2018-05-25T17:07:10.322Z,34.80
2018-05-25T17:09:38.604Z,35.20
2018-05-25T17:12:06.907Z,35.80
2018-05-25T17:14:35.401Z,35.80
2018-05-25T17:17:03.147Z,35.70
2018-05-25T17:19:30.690Z,35.90
2018-05-25T17:21:59.013Z,36.10
2018-05-25T17:24:26.576Z,36.00
2018-05-25T17:26:54.077Z,36.20
2018-05-25T17:29:21.603Z,36.40
2018-05-25T17:31:49.184Z,36.60
2018-05-25T17:34:16.706Z,36.80
2018-05-25T17:36:44.258Z,36.90
2018-05-25T17:39:11.797Z,37.00
2018-05-25T17:41:39.614Z,36.80
2018-05-25T17:44:07.135Z,36.70
2018-05-25T17:46:34.670Z,36.90
2018-05-25T17:49:02.182Z,37.50
2018-05-25T17:51:29.713Z,37.00
2018-05-25T17:53:57.981Z,37.00
2018-05-25T17:56:25.526Z,37.00
2018-05-25T17:58:53.047Z,36.70
2018-05-25T18:01:20.548Z,37.00
2018-05-25T18:03:48.862Z,37.30
2018-05-25T18:06:17.157Z,37.40
2018-05-25T18:08:44.678Z,37.40
2018-05-25T18:11:12.229Z,37.40
2018-05-25T18:13:40.494Z,37.60
2018-05-25T18:16:08.030Z,37.60
2018-05-25T18:18:35.564Z,37.60
2018-05-25T18:21:03.070Z,37.70
2018-05-25T18:23:30.587Z,37.70
2018-05-25T18:25:58.097Z,37.80
2018-05-25T18:28:25.631Z,38.00
2018-05-25T18:30:53.941Z,38.60
2018-05-25T18:33:22.815Z,38.20
2018-05-25T18:35:50.417Z,38.20
2018-05-25T18:38:18.731Z,38.20
2018-05-25T18:40:47.086Z,38.20
2018-05-25T18:43:14.701Z,38.20
2018-05-25T18:45:42.238Z,38.10
2018-05-25T18:48:10.445Z,38.20
2018-05-25T18:50:38.045Z,38.40
2018-05-25T18:53:05.590Z,38.30
2018-05-25T18:55:33.130Z,38.60
2018-05-25T18:58:00.656Z,38.90
2018-05-25T19:00:28.211Z,38.20
2018-05-25T19:02:55.742Z,37.90
2018-05-25T19:05:23.254Z,38.20
2018-05-25T19:07:50.767Z,37.60
2018-05-25T19:10:18.294Z,37.20
2018-05-25T19:12:49.091Z,37.20
2018-05-25T19:15:16.767Z,36.90
2018-05-25T19:17:44.308Z,37.60
2018-05-25T19:20:12.589Z,37.60
2018-05-25T19:22:40.580Z,37.50
2018-05-25T19:25:08.130Z,37.90
2018-05-25T19:27:35.651Z,37.30
2018-05-25T19:30:03.924Z,37.70
2018-05-25T19:32:32.208Z,37.00
2018-05-25T19:35:00.532Z,37.00
2018-05-25T19:37:28.038Z,36.70
2018-05-25T19:39:55.555Z,36.30
2018-05-25T19:42:23.070Z,36.00
2018-05-25T19:44:50.552Z,35.80
2018-05-25T19:47:18.702Z,36.00
2018-05-25T19:49:46.964Z,35.90
2018-05-25T19:52:15.429Z,35.90
2018-05-25T19:54:45.165Z,37.10
2018-05-25T19:57:12.751Z,36.60
2018-05-25T19:59:40.931Z,36.20
2018-05-25T20:02:08.471Z,37.00
2018-05-25T20:04:37.451Z,36.80
2018-05-25T20:07:05.045Z,36.80
2018-05-25T20:09:32.561Z,35.90
2018-05-25T20:12:00.057Z,36.90
2018-05-25T20:14:27.559Z,36.60
2018-05-25T20:16:55.835Z,37.00
2018-05-25T20:19:23.376Z,37.00
2018-05-25T20:21:50.889Z,36.70
2018-05-25T20:24:18.419Z,36.90
2018-05-25T20:26:46.728Z,36.70
2018-05-25T20:29:14.264Z,36.70
2018-05-25T20:31:41.807Z,37.50
2018-05-25T20:34:09.606Z,36.90
2018-05-25T20:36:37.137Z,37.20
2018-05-25T20:39:05.446Z,37.40
2018-05-25T20:41:33.011Z,37.30
2018-05-25T20:44:00.526Z,37.00
2018-05-25T20:46:28.088Z,37.20
2018-05-25T20:51:30.258Z,38.00
2018-05-25T20:53:58.597Z,37.90
2018-05-25T20:56:26.116Z,37.80
2018-05-25T20:58:53.672Z,38.50
2018-05-25T21:01:21.163Z,37.80
2018-05-25T21:03:48.680Z,38.10
2018-05-25T21:06:16.235Z,38.40
2018-05-25T21:08:43.754Z,38.80
2018-05-25T21:11:11.974Z,38.70
2018-05-25T21:13:40.742Z,38.70
2018-05-25T21:16:08.251Z,38.60
2018-05-25T21:18:35.769Z,38.50
2018-05-25T21:21:03.276Z,38.40
2018-05-25T21:23:30.773Z,38.90
2018-05-25T21:25:58.334Z,39.40
2018-05-25T21:28:25.859Z,39.60
2018-05-25T21:30:53.375Z,39.40
2018-05-25T21:33:21.649Z,39.50
2018-05-25T21:35:49.205Z,39.40
2018-05-25T21:38:16.747Z,39.40
2018-05-25T21:43:18.992Z,40.00
2018-05-25T21:45:46.535Z,40.30
2018-05-25T21:48:14.043Z,40.30
2018-05-25T21:50:41.607Z,40.40
2018-05-25T21:53:09.119Z,40.00
2018-05-25T21:55:36.653Z,40.10
2018-05-25T21:58:04.167Z,39.50
2018-05-25T22:00:32.440Z,40.00
2018-05-25T22:02:59.964Z,40.00
2018-05-25T22:05:28.238Z,40.20
2018-05-25T22:07:55.742Z,40.20
2018-05-25T22:10:24.034Z,40.60
2018-05-25T22:12:51.557Z,40.50
2018-05-25T22:15:19.089Z,40.50
2018-05-25T22:17:46.581Z,40.80
2018-05-25T22:20:14.095Z,41.20
2018-05-25T22:22:41.678Z,41.20
2018-05-25T22:25:10.585Z,41.20
2018-05-25T22:27:38.951Z,41.30
2018-05-25T22:30:06.470Z,41.20
2018-05-25T22:32:34.808Z,41.70
2018-05-25T22:35:02.306Z,41.60
2018-05-25T22:37:29.826Z,41.70
2018-05-25T22:39:57.364Z,41.30
2018-05-25T22:42:36.649Z,42.20
2018-05-25T22:45:16.155Z,42.30
2018-05-25T22:47:56.164Z,42.40
2018-05-25T22:50:35.471Z,42.30
2018-05-25T22:53:08.866Z,42.40
2018-05-25T22:55:37.150Z,42.70
2018-05-25T22:58:04.674Z,42.70
2018-05-25T23:00:32.213Z,42.70
2018-05-25T23:02:59.769Z,43.00
2018-05-25T23:05:28.057Z,43.20
2018-05-25T23:07:55.594Z,43.10
2018-05-25T23:10:23.100Z,43.60
2018-05-25T23:12:50.628Z,43.40
2018-05-25T23:15:18.889Z,43.30
2018-05-25T23:17:46.414Z,43.20
2018-05-25T23:20:14.687Z,43.30
2018-05-25T23:22:42.218Z,43.20
2018-05-25T23:25:09.738Z,43.50
2018-05-25T23:27:38.101Z,43.50
2018-05-25T23:30:05.620Z,43.50
2018-05-25T23:35:07.398Z,43.30
2018-05-25T23:37:34.927Z,43.50
2018-05-25T23:40:02.463Z,43.50
2018-05-25T23:42:29.998Z,43.50
2018-05-25T23:44:58.290Z,44.10
2018-05-25T23:47:25.807Z,43.40
2018-05-25T23:49:53.365Z,43.70
2018-05-25T23:52:20.890Z,43.50
2018-05-25T23:54:49.182Z,43.50
2018-05-25T23:57:17.464Z,43.60
2018-05-25T23:59:44.982Z,43.50
